createdAt,value
2023-05-25T03:00:37.776Z,54.39
2023-05-25T03:03:06.041Z,54.31
2023-05-25T03:05:35.476Z,54.62
2023-05-25T03:08:03.772Z,54.49
2023-05-25T03:10:32.222Z,54.49
2023-05-25T03:13:00.051Z,54.56
2023-05-25T03:15:27.217Z,54.39
2023-05-25T03:17:56.926Z,54.67
2023-05-25T03:20:26.520Z,54.53
2023-05-25T03:22:55.337Z,54.57
2023-05-25T03:25:23.346Z,54.52
2023-05-25T03:27:54.273Z,54.71
2023-05-25T03:30:22.477Z,54.69
2023-05-25T03:32:51.006Z,54.72
2023-05-25T03:35:19.665Z,54.71
2023-05-25T03:37:46.931Z,54.65
2023-05-25T03:40:14.676Z,54.76
2023-05-25T03:42:42.451Z,54.78
2023-05-25T03:45:10.900Z,54.86
2023-05-25T03:47:40.498Z,54.85
2023-05-25T03:50:08.690Z,54.92
2023-05-25T03:52:36.751Z,54.72
2023-05-25T03:55:04.701Z,54.93
2023-05-25T03:57:32.066Z,54.81
2023-05-25T03:59:59.373Z,54.94
2023-05-25T04:02:27.142Z,54.91
2023-05-25T04:04:57.190Z,54.84
2023-05-25T04:07:31.144Z,54.88
2023-05-25T04:09:59.883Z,55.00
2023-05-25T04:12:28.089Z,55.01
2023-05-25T04:14:56.551Z,55.00
2023-05-25T04:17:26.515Z,55.07
2023-05-25T04:19:54.326Z,55.13
2023-05-25T04:22:23.822Z,55.11
2023-05-25T04:24:50.887Z,55.05
2023-05-25T04:27:20.445Z,54.96
2023-05-25T04:29:50.122Z,55.02
2023-05-25T04:32:45.668Z,55.17
2023-05-25T04:35:34.229Z,55.36
2023-05-25T04:38:03.170Z,55.29
2023-05-25T04:40:32.913Z,55.52
2023-05-25T04:43:01.925Z,55.36
2023-05-25T04:45:32.338Z,55.45
2023-05-25T04:48:01.919Z,55.36
2023-05-25T04:50:30.258Z,55.15
2023-05-25T04:52:57.351Z,55.07
2023-05-25T04:55:25.520Z,55.16
2023-05-25T04:57:54.947Z,54.65
2023-05-25T05:00:25.015Z,53.63
2023-05-25T05:02:58.884Z,53.38
2023-05-25T05:05:26.830Z,53.43
2023-05-25T05:07:56.347Z,53.44
2023-05-25T05:10:24.344Z,53.30
2023-05-25T05:12:57.126Z,53.13
2023-05-25T05:15:25.125Z,53.23
2023-05-25T05:17:54.299Z,53.24
2023-05-25T05:20:22.888Z,53.22
2023-05-25T05:22:52.950Z,53.27
2023-05-25T05:25:21.100Z,53.41
2023-05-25T05:27:48.310Z,53.55
2023-05-25T05:30:23.353Z,53.27
2023-05-25T05:32:50.647Z,53.23
2023-05-25T05:35:19.575Z,53.27
2023-05-25T05:37:48.000Z,53.18
2023-05-25T05:40:16.038Z,53.09
2023-05-25T05:42:43.919Z,53.07
2023-05-25T05:45:13.428Z,52.75
2023-05-25T05:47:41.597Z,52.52
2023-05-25T05:50:10.745Z,52.13
2023-05-25T05:52:40.048Z,51.62
2023-05-25T05:55:08.607Z,50.92
2023-05-25T05:57:38.731Z,50.04
2023-05-25T06:00:07.384Z,49.26
2023-05-25T06:02:43.280Z,48.67
2023-05-25T06:05:13.585Z,48.68
2023-05-25T06:07:42.980Z,49.09
2023-05-25T06:10:10.929Z,49.38
2023-05-25T06:12:38.674Z,49.16
2023-05-25T06:15:07.450Z,49.37
2023-05-25T06:17:37.581Z,49.28
2023-05-25T06:20:06.627Z,49.34
2023-05-25T06:22:34.452Z,49.25
2023-05-25T06:25:02.327Z,49.37
2023-05-25T06:27:29.777Z,49.25
2023-05-25T06:29:57.656Z,49.50
2023-05-25T06:32:25.653Z,49.73
2023-05-25T06:34:55.542Z,49.93
2023-05-25T06:37:23.857Z,49.95
2023-05-25T06:39:51.861Z,49.67
2023-05-25T06:42:19.859Z,49.82
2023-05-25T06:44:54.038Z,49.73
2023-05-25T06:47:21.579Z,49.89
2023-05-25T06:49:50.063Z,49.81
2023-05-25T06:52:17.747Z,49.69
2023-05-25T06:54:45.588Z,49.70
2023-05-25T06:57:13.490Z,49.61
2023-05-25T06:59:41.309Z,49.81
2023-05-25T07:02:09.137Z,49.98
2023-05-25T07:04:37.378Z,49.51
2023-05-25T07:07:05.501Z,49.55
2023-05-25T07:09:33.522Z,49.75
2023-05-25T07:12:01.166Z,49.77
2023-05-25T07:14:28.876Z,49.51
2023-05-25T07:16:57.002Z,49.66
2023-05-25T07:19:24.925Z,49.71
2023-05-25T07:21:52.681Z,49.75
2023-05-25T07:24:20.817Z,49.74
2023-05-25T07:26:49.546Z,49.58
2023-05-25T07:29:17.851Z,49.41
2023-05-25T07:31:46.137Z,49.33
2023-05-25T07:34:13.901Z,49.43
2023-05-25T07:36:41.634Z,49.45
2023-05-25T07:39:11.225Z,49.30
2023-05-25T07:41:39.367Z,48.99
2023-05-25T07:44:06.812Z,49.34
2023-05-25T07:46:34.616Z,49.30
2023-05-25T07:49:04.835Z,49.09
2023-05-25T07:51:33.610Z,49.28
2023-05-25T07:54:01.517Z,49.26
2023-05-25T07:56:29.502Z,49.11
2023-05-25T07:58:57.637Z,48.75
2023-05-25T08:01:26.961Z,48.94
2023-05-25T08:03:54.663Z,49.22
2023-05-25T08:06:21.996Z,49.02
2023-05-25T08:08:50.610Z,49.16
2023-05-25T08:11:17.754Z,49.26
2023-05-25T08:13:45.754Z,49.07
2023-05-25T08:16:13.416Z,49.06
2023-05-25T08:18:44.109Z,49.08
2023-05-25T08:21:12.021Z,48.81
2023-05-25T08:23:43.087Z,48.83
2023-05-25T08:26:31.195Z,48.96
2023-05-25T08:29:01.114Z,48.76
2023-05-25T08:31:29.354Z,48.46
2023-05-25T08:33:57.368Z,48.41
2023-05-25T08:36:26.149Z,48.54
2023-05-25T08:38:54.160Z,48.93
2023-05-25T08:41:22.828Z,48.77
2023-05-25T08:43:50.288Z,48.64
2023-05-25T08:46:24.618Z,48.40
2023-05-25T08:48:52.799Z,47.93
2023-05-25T08:51:20.628Z,48.31
2023-05-25T08:53:47.736Z,48.31
2023-05-25T08:56:26.528Z,48.50
2023-05-25T08:59:04.808Z,48.11
2023-05-25T09:01:36.410Z,48.12
2023-05-25T09:04:03.566Z,48.15
2023-05-25T09:06:30.633Z,48.14
2023-05-25T09:08:57.872Z,47.89
2023-05-25T09:11:37.259Z,47.80
2023-05-25T09:14:07.224Z,47.35
2023-05-25T09:16:36.793Z,47.41
2023-05-25T09:19:04.623Z,47.46
2023-05-25T09:21:31.786Z,47.57
2023-05-25T09:24:00.233Z,47.68
2023-05-25T09:26:28.236Z,47.76
2023-05-25T09:28:55.786Z,47.97
2023-05-25T09:31:24.613Z,48.07
2023-05-25T09:33:55.079Z,47.98
2023-05-25T09:36:22.974Z,47.56
2023-05-25T09:38:52.595Z,47.39
2023-05-25T09:41:21.208Z,47.45
2023-05-25T09:44:02.104Z,47.58
2023-05-25T09:46:38.886Z,47.41
2023-05-25T09:49:08.093Z,47.50
2023-05-25T09:51:36.255Z,47.38
2023-05-25T09:54:04.550Z,47.26
2023-05-25T09:56:33.166Z,47.35
2023-05-25T09:59:01.284Z,47.43
2023-05-25T10:01:28.705Z,47.48
2023-05-25T10:04:04.328Z,47.13
2023-05-25T10:06:33.995Z,47.13
2023-05-25T10:09:02.357Z,47.13
2023-05-25T10:11:30.783Z,47.25
2023-05-25T10:14:03.933Z,46.90
2023-05-25T10:16:33.671Z,46.87
2023-05-25T10:19:06.515Z,47.09
2023-05-25T10:21:37.045Z,47.11
2023-05-25T10:24:06.465Z,47.06
2023-05-25T10:26:39.966Z,47.16
2023-05-25T10:29:09.201Z,46.97
2023-05-25T10:31:38.688Z,46.77
2023-05-25T10:34:06.060Z,46.71
2023-05-25T10:36:43.208Z,46.81
2023-05-25T10:39:11.827Z,46.37
2023-05-25T10:41:39.685Z,46.30
2023-05-25T10:44:08.262Z,46.15
2023-05-25T10:46:36.476Z,46.23
2023-05-25T10:49:04.017Z,46.02
2023-05-25T10:51:38.983Z,46.17
2023-05-25T10:54:07.100Z,46.19
2023-05-25T10:56:34.429Z,45.95
2023-05-25T10:59:02.595Z,45.98
2023-05-25T11:01:33.151Z,45.96
2023-05-25T11:04:21.277Z,46.23
2023-05-25T11:06:49.096Z,46.00
2023-05-25T11:09:26.747Z,45.97
2023-05-25T11:11:55.957Z,45.95
2023-05-25T11:14:29.668Z,45.89
2023-05-25T11:17:18.444Z,45.94
2023-05-25T11:19:54.140Z,45.99
2023-05-25T11:22:22.847Z,45.83
2023-05-25T11:24:51.875Z,45.88
2023-05-25T11:27:27.197Z,46.01
2023-05-25T11:29:57.763Z,45.81
2023-05-25T11:32:26.521Z,45.88
2023-05-25T11:34:55.209Z,45.67
2023-05-25T11:37:28.915Z,45.69
2023-05-25T11:39:57.866Z,45.72
2023-05-25T11:42:26.388Z,45.82
2023-05-25T11:44:55.681Z,45.83
2023-05-25T11:47:25.363Z,45.88
2023-05-25T11:49:55.535Z,45.59
2023-05-25T11:52:23.332Z,45.54
2023-05-25T11:54:53.500Z,45.70
2023-05-25T11:57:24.726Z,45.48
2023-05-25T11:59:53.580Z,45.72
2023-05-25T12:02:21.887Z,45.57
2023-05-25T12:04:53.664Z,45.39
2023-05-25T12:07:21.432Z,45.54
2023-05-25T12:09:48.942Z,45.54
2023-05-25T12:12:16.531Z,45.40
2023-05-25T12:14:47.437Z,45.23
2023-05-25T12:17:16.395Z,45.23
2023-05-25T12:19:44.941Z,45.32
2023-05-25T12:22:14.069Z,45.16
2023-05-25T12:24:41.826Z,45.22
2023-05-25T12:27:27.714Z,45.20
2023-05-25T12:29:59.008Z,45.19
2023-05-25T12:32:27.045Z,45.20
2023-05-25T12:35:04.986Z,44.78
2023-05-25T12:37:33.174Z,44.69
2023-05-25T12:40:01.060Z,45.05
2023-05-25T12:42:30.956Z,45.11
2023-05-25T12:45:00.733Z,45.24
2023-05-25T12:47:30.269Z,45.10
2023-05-25T12:50:13.534Z,45.25
2023-05-25T12:52:43.095Z,45.11
2023-05-25T12:55:21.152Z,44.91
2023-05-25T12:57:55.014Z,44.96
2023-05-25T13:00:23.672Z,44.89
2023-05-25T13:02:53.695Z,44.88
2023-05-25T13:05:29.100Z,44.75
2023-05-25T13:07:58.156Z,44.73
2023-05-25T13:10:26.615Z,44.79
2023-05-25T13:12:56.217Z,44.77
2023-05-25T13:15:23.890Z,44.87
2023-05-25T13:17:52.568Z,44.64
2023-05-25T13:20:21.627Z,44.58
2023-05-25T13:22:50.367Z,44.32
2023-05-25T13:25:17.932Z,44.40
2023-05-25T13:27:49.920Z,44.55
2023-05-25T13:30:17.869Z,44.49
2023-05-25T13:32:46.050Z,44.65
2023-05-25T13:35:36.973Z,44.59
2023-05-25T13:38:05.223Z,44.33
2023-05-25T13:40:32.852Z,44.27
2023-05-25T13:43:00.852Z,44.37
2023-05-25T13:45:28.602Z,44.35
2023-05-25T13:47:56.692Z,44.25
2023-05-25T13:50:24.813Z,44.16
2023-05-25T13:52:52.433Z,44.18
2023-05-25T13:55:19.578Z,44.19
2023-05-25T13:57:46.627Z,43.95
2023-05-25T14:00:14.177Z,43.53
2023-05-25T14:02:41.817Z,43.54
2023-05-25T14:05:09.612Z,43.55
2023-05-25T14:07:38.920Z,43.56
2023-05-25T14:10:06.596Z,43.83
2023-05-25T14:12:34.108Z,43.96
2023-05-25T14:15:01.716Z,43.75
2023-05-25T14:17:29.459Z,43.79
2023-05-25T14:19:58.361Z,43.94
2023-05-25T14:22:27.512Z,44.18
2023-05-25T14:24:54.531Z,44.09
2023-05-25T14:27:21.728Z,44.11
2023-05-25T14:29:50.039Z,44.20
2023-05-25T14:32:18.522Z,44.19
2023-05-25T14:34:45.809Z,44.29
2023-05-25T14:37:13.797Z,44.14
2023-05-25T14:39:40.985Z,44.11
2023-05-25T14:42:08.068Z,44.06
2023-05-25T14:44:35.558Z,44.19
2023-05-25T14:47:03.583Z,44.09
2023-05-25T14:49:31.996Z,44.10
2023-05-25T14:51:59.650Z,44.06
2023-05-25T14:54:27.359Z,44.06
2023-05-25T14:56:55.678Z,44.24
2023-05-25T14:59:23.147Z,44.20
2023-05-25T15:01:51.025Z,43.99
2023-05-25T15:04:18.990Z,44.22
2023-05-25T15:06:46.291Z,44.08
2023-05-25T15:09:15.875Z,43.92
2023-05-25T15:11:44.109Z,44.08
2023-05-25T15:14:11.962Z,43.93
2023-05-25T15:16:40.309Z,43.90
2023-05-25T15:19:10.624Z,44.02
2023-05-25T15:21:40.191Z,43.95
2023-05-25T15:24:08.157Z,44.13
2023-05-25T15:26:36.279Z,44.12
2023-05-25T15:29:04.021Z,44.21
2023-05-25T15:31:32.111Z,44.18
2023-05-25T15:34:00.943Z,44.20
2023-05-25T15:36:28.965Z,44.10
2023-05-25T15:38:56.825Z,44.07
2023-05-25T15:41:24.937Z,44.04
2023-05-25T15:43:57.874Z,44.04
2023-05-25T15:46:26.941Z,43.76
2023-05-25T15:48:54.504Z,43.87
2023-05-25T15:51:22.254Z,43.86
2023-05-25T15:53:50.147Z,43.81
2023-05-25T15:56:18.156Z,43.73
2023-05-25T15:58:48.729Z,43.85
2023-05-25T16:01:17.492Z,43.62
2023-05-25T16:03:45.538Z,43.77
2023-05-25T16:06:12.912Z,43.90
2023-05-25T16:08:40.994Z,43.79
2023-05-25T16:11:08.980Z,43.86
2023-05-25T16:13:36.893Z,44.04
2023-05-25T16:16:05.504Z,44.03
2023-05-25T16:18:33.723Z,43.73
2023-05-25T16:21:01.870Z,43.67
2023-05-25T16:23:29.581Z,43.58
2023-05-25T16:25:57.414Z,43.44
2023-05-25T16:28:25.967Z,43.48
2023-05-25T16:30:53.709Z,43.47
2023-05-25T16:33:21.619Z,43.64
2023-05-25T16:35:50.124Z,43.59
2023-05-25T16:38:18.733Z,43.50
2023-05-25T16:40:46.639Z,43.70
2023-05-25T16:43:14.024Z,43.63
2023-05-25T16:45:42.141Z,43.72
2023-05-25T16:48:11.987Z,43.67
2023-05-25T16:50:39.420Z,43.71
2023-05-25T16:53:08.091Z,43.69
2023-05-25T16:55:35.974Z,43.82
2023-05-25T16:58:03.135Z,43.84
2023-05-25T17:00:30.479Z,44.04
2023-05-25T17:02:58.080Z,44.03
2023-05-25T17:05:25.990Z,44.07
2023-05-25T17:07:53.323Z,44.05
2023-05-25T17:10:20.929Z,44.13
2023-05-25T17:12:50.186Z,44.26
2023-05-25T17:15:18.355Z,44.37
2023-05-25T17:17:46.021Z,44.46
2023-05-25T17:20:14.042Z,44.52
2023-05-25T17:22:43.758Z,44.66
2023-05-25T17:25:12.090Z,44.77
2023-05-25T17:27:40.917Z,44.89
2023-05-25T17:30:09.000Z,45.11
2023-05-25T17:32:37.920Z,45.19
2023-05-25T17:35:05.684Z,45.33
2023-05-25T17:37:33.311Z,45.44
2023-05-25T17:40:01.336Z,45.61
2023-05-25T17:42:29.112Z,45.71
2023-05-25T17:44:57.187Z,45.83
2023-05-25T17:47:26.110Z,45.98
2023-05-25T17:49:54.818Z,46.08
2023-05-25T17:52:23.358Z,46.19
2023-05-25T17:54:51.124Z,46.38
2023-05-25T17:57:19.287Z,46.35
2023-05-25T17:59:47.111Z,46.43
2023-05-25T18:02:16.257Z,46.58
2023-05-25T18:04:45.044Z,46.61
2023-05-25T18:07:13.772Z,46.81
2023-05-25T18:09:41.602Z,46.82
2023-05-25T18:12:09.160Z,46.75
2023-05-25T18:14:37.778Z,46.95
2023-05-25T18:17:05.470Z,46.93
2023-05-25T18:19:34.283Z,47.01
2023-05-25T18:22:01.751Z,47.07
2023-05-25T18:24:30.288Z,47.23
2023-05-25T18:27:03.392Z,47.27
2023-05-25T18:29:31.593Z,47.39
2023-05-25T18:31:59.925Z,47.45
2023-05-25T18:34:30.322Z,47.52
2023-05-25T18:36:57.902Z,47.63
2023-05-25T18:39:27.587Z,47.65
2023-05-25T18:41:56.005Z,47.76
2023-05-25T18:44:24.665Z,47.71
2023-05-25T18:46:55.770Z,47.75
2023-05-25T18:49:24.252Z,47.86
2023-05-25T18:51:53.772Z,47.93
2023-05-25T18:54:21.665Z,48.08
2023-05-25T18:56:51.331Z,47.97
2023-05-25T18:59:20.042Z,48.11
2023-05-25T19:01:47.230Z,48.13
2023-05-25T19:04:14.794Z,48.23
2023-05-25T19:06:43.547Z,48.29
2023-05-25T19:09:11.071Z,48.37
2023-05-25T19:11:39.669Z,48.38
2023-05-25T19:14:08.952Z,48.44
2023-05-25T19:16:37.884Z,48.52
2023-05-25T19:19:06.603Z,48.66
2023-05-25T19:21:37.233Z,48.68
2023-05-25T19:24:05.362Z,48.78
2023-05-25T19:26:36.599Z,48.86
2023-05-25T19:29:05.792Z,48.91
2023-05-25T19:31:34.086Z,49.00
2023-05-25T19:34:03.148Z,49.14
2023-05-25T19:36:34.064Z,49.28
2023-05-25T19:39:05.054Z,49.31
2023-05-25T19:41:36.311Z,49.32
2023-05-25T19:44:05.135Z,49.54
2023-05-25T19:46:34.214Z,49.48
2023-05-25T19:49:02.339Z,49.66
2023-05-25T19:51:33.111Z,49.71
2023-05-25T19:54:02.805Z,49.78
2023-05-25T19:56:31.254Z,49.83
2023-05-25T19:59:00.294Z,49.83
2023-05-25T20:01:28.129Z,49.83
2023-05-25T20:03:57.974Z,49.89
2023-05-25T20:06:25.358Z,49.99
2023-05-25T20:08:53.004Z,49.99
2023-05-25T20:11:22.964Z,50.18
2023-05-25T20:13:51.322Z,50.20
2023-05-25T20:16:18.410Z,50.38
2023-05-25T20:18:45.534Z,50.39
2023-05-25T20:21:13.131Z,50.47
2023-05-25T20:23:40.816Z,50.57
2023-05-25T20:26:08.941Z,50.73
2023-05-25T20:28:38.374Z,50.79
2023-05-25T20:31:06.194Z,50.93
2023-05-25T20:33:33.918Z,51.05
2023-05-25T20:36:01.776Z,51.15
2023-05-25T20:38:29.383Z,51.21
2023-05-25T20:40:58.584Z,51.19
2023-05-25T20:43:28.313Z,51.36
2023-05-25T20:45:56.007Z,51.44
2023-05-25T20:48:25.099Z,51.57
2023-05-25T20:50:54.665Z,51.51
2023-05-25T20:53:23.607Z,51.59
2023-05-25T20:55:52.606Z,51.71
2023-05-25T20:58:20.689Z,51.68
2023-05-25T21:00:52.303Z,51.73
2023-05-25T21:03:19.502Z,51.76
2023-05-25T21:05:47.279Z,51.77
2023-05-25T21:08:15.056Z,51.84
2023-05-25T21:10:43.757Z,51.93
2023-05-25T21:13:17.950Z,51.99
2023-05-25T21:15:53.755Z,52.08
2023-05-25T21:18:24.393Z,52.19
2023-05-25T21:20:58.988Z,52.19
2023-05-25T21:23:29.835Z,52.22
2023-05-25T21:25:59.765Z,52.32
2023-05-25T21:28:30.683Z,52.35
2023-05-25T21:31:05.230Z,52.46
2023-05-25T21:33:36.753Z,52.53
2023-05-25T21:36:08.152Z,52.70
2023-05-25T21:38:41.416Z,52.67
2023-05-25T21:41:11.152Z,52.81
2023-05-25T21:43:38.705Z,52.89
2023-05-25T21:46:06.950Z,52.88
2023-05-25T21:48:35.863Z,52.91
2023-05-25T21:51:03.883Z,53.01
2023-05-25T21:53:31.699Z,53.06
2023-05-25T21:55:59.705Z,53.11
2023-05-25T21:58:27.714Z,53.22
2023-05-25T22:00:56.188Z,53.23
2023-05-25T22:03:23.876Z,53.32
2023-05-25T22:05:52.100Z,53.38
2023-05-25T22:08:19.526Z,53.47
2023-05-25T22:10:47.146Z,53.41
2023-05-25T22:13:14.939Z,53.42
2023-05-25T22:15:44.112Z,53.49
2023-05-25T22:18:11.635Z,53.41
2023-05-25T22:20:41.634Z,53.53
2023-05-25T22:23:11.313Z,53.62
2023-05-25T22:25:38.531Z,53.73
2023-05-25T22:28:08.869Z,53.69
2023-05-25T22:30:38.863Z,53.82
2023-05-25T22:33:11.558Z,53.84
2023-05-25T22:36:09.910Z,54.01
2023-05-25T22:38:39.172Z,54.06
2023-05-25T22:41:09.090Z,54.07
2023-05-25T22:43:39.395Z,54.10
2023-05-25T22:46:14.235Z,54.07
2023-05-25T22:48:43.161Z,54.15
2023-05-25T22:51:12.689Z,54.15
2023-05-25T22:53:41.114Z,54.23
2023-05-25T22:56:09.321Z,54.26
2023-05-25T22:58:37.060Z,54.28
2023-05-25T23:01:05.844Z,54.36
2023-05-25T23:03:34.337Z,54.45
2023-05-25T23:06:05.346Z,54.35
2023-05-25T23:08:33.359Z,54.47
2023-05-25T23:11:01.721Z,54.56
2023-05-25T23:13:30.424Z,54.59
2023-05-25T23:15:59.403Z,54.49
2023-05-25T23:18:27.472Z,54.52
2023-05-25T23:20:57.782Z,54.60
2023-05-25T23:23:28.357Z,54.66
2023-05-25T23:25:58.415Z,54.79
2023-05-25T23:28:26.405Z,54.83
2023-05-25T23:31:01.597Z,54.81
2023-05-25T23:33:31.789Z,54.95
2023-05-25T23:36:01.489Z,54.91
2023-05-25T23:38:29.223Z,54.88
2023-05-25T23:40:59.773Z,54.98
2023-05-25T23:43:27.717Z,54.76
2023-05-25T23:45:55.273Z,54.71
2023-05-25T23:48:23.119Z,54.51
2023-05-25T23:50:50.988Z,54.14
2023-05-25T23:53:18.752Z,53.97
2023-05-25T23:55:46.985Z,53.75
2023-05-25T23:58:15.667Z,53.62
